EPKK/KRK METAR and TAF weather

Enter ICAO airport designator
Station Type Date Time Source
EPKK METAR 2020/12/05 06:30 UTC NOAA

EPKK 050630Z 05008KT CAVOK 06/03 Q1007


Station Type Date Time Source
EPKK Decoded METAR 2020/12/05 06:30 UTC NOAA

Krakow, Poland (EPKK) 50-05N 019-48E 237M
Dec 05, 2020 - 01:30 AM EST / 2020.12.05 0630 UTC
Wind: from the NE (050 degrees) at 9 MPH (8 KT):0
Visibility: greater than 7 mile(s):0
Temperature: 42 F (6 C)
Dew Point: 37 F (3 C)
Relative Humidity: 81%
Pressure (altimeter): 29.74 in. Hg (1007 hPa)
ob: EPKK 050630Z 05008KT CAVOK 06/03 Q1007
cycle: 6

Station Type Date Time Source
EPKK TAF 2020/12/05 06:33 UTC NOAA

TAF EPKK 050530Z 0506/0606 04008KT CAVOK

Example: see airport list